Time;durP1;ratioP1;P1;durP2;ratioP2;P2;SDS_P1;SDS_P2;PMS_P1;PMS_P2;Temp;Humidity;BMP_temperature;BMP_pressure;BME280_temperature;BME280_humidity;BME280_pressure;Samples;Min_cycle;Max_cycle;Signal;HPM_P1;HPM_P2
2022/01/15 00:01:38;;;;;;;2.38;1.23;;;;;;;-1.56;75.29;96691.50;5050675;28;20044;-72
2022/01/15 00:04:04;;;;;;;0.88;0.88;;;;;;;-1.55;74.85;96700.81;5068996;28;20045;-71
2022/01/15 00:06:32;;;;;;;0.90;0.90;;;;;;;-1.57;75.56;96711.13;5051151;28;20534;-71
2022/01/15 00:08:58;;;;;;;1.17;1.17;;;;;;;-1.59;75.80;96702.72;5068798;28;20083;-71
2022/01/15 00:11:25;;;;;;;1.13;1.02;;;;;;;-1.61;76.12;96713.97;5050741;28;20456;-71
2022/01/15 00:14:09;;;;;;;1.83;1.38;;;;;;;-1.60;76.62;96713.03;5068750;28;20067;-71
2022/01/15 00:16:46;;;;;;;1.40;1.23;;;;;;;-1.57;76.48;96723.09;5068480;28;20071;-73
2022/01/15 00:19:14;;;;;;;2.13;1.42;;;;;;;-1.61;77.18;96712.25;5084511;28;20048;-72
2022/01/15 00:21:40;;;;;;;1.00;1.00;;;;;;;-1.61;77.62;96726.75;5050899;28;20062;-71
2022/01/15 00:24:06;;;;;;;1.55;1.33;;;;;;;-1.60;77.75;96723.25;5068752;28;20132;-72
2022/01/15 00:26:33;;;;;;;1.60;1.50;;;;;;;-1.61;77.79;96727.56;5050936;28;20043;-73
2022/01/15 00:28:59;;;;;;;1.48;1.48;;;;;;;-1.63;78.76;96729.38;5034466;28;20139;-72
2022/01/15 00:31:26;;;;;;;1.77;1.67;;;;;;;-1.71;80.22;96721.34;5068748;28;20046;-72
2022/01/15 00:33:54;;;;;;;1.52;1.48;;;;;;;-1.76;81.83;96740.38;5050604;28;20044;-71
2022/01/15 00:36:20;;;;;;;1.60;1.50;;;;;;;-1.79;83.20;96743.09;5068594;28;20041;-70
2022/01/15 00:38:48;;;;;;;1.77;1.67;;;;;;;-1.78;83.31;96739.66;5050064;28;20676;-70
2022/01/15 00:41:16;;;;;;;2.00;1.63;;;;;;;-1.66;82.38;96744.91;5051118;28;20052;-71
2022/01/15 00:43:42;;;;;;;1.52;1.42;;;;;;;-1.65;82.92;96750.84;5068383;28;20070;-71
2022/01/15 00:46:08;;;;;;;1.80;1.70;;;;;;;-1.62;82.31;96753.22;5068397;28;20633;-72
2022/01/15 00:48:34;;;;;;;1.35;1.25;;;;;;;-1.69;83.12;96755.28;5068505;28;20466;-71
2022/01/15 00:51:00;;;;;;;1.48;1.38;;;;;;;-1.74;83.41;96761.59;5033954;28;20041;-70
2022/01/15 00:53:29;;;;;;;1.58;1.40;;;;;;;-1.71;82.92;96756.28;5068551;28;20043;-71
2022/01/15 00:55:55;;;;;;;1.80;1.70;;;;;;;-1.75;83.98;96770.16;5068137;28;20044;-73
2022/01/15 00:58:22;;;;;;;1.20;1.20;;;;;;;-1.76;83.96;96765.94;5050533;28;20041;-70
2022/01/15 01:00:48;;;;;;;3.42;1.92;;;;;;;-1.71;81.86;96771.63;5034861;28;20044;-71
2022/01/15 01:03:14;;;;;;;1.98;1.83;;;;;;;-1.71;82.36;96769.06;5038409;28;20106;-70
2022/01/15 01:05:40;;;;;;;2.40;2.05;;;;;;;-1.72;81.88;96775.91;5072034;28;20389;-70
2022/01/15 01:08:06;;;;;;;1.65;1.55;;;;;;;-1.65;80.39;96791.75;5072608;28;20431;-70
2022/01/15 01:24:00;;;;;;;1.52;1.42;;;;;;;-1.47;76.84;96765.13;5053838;28;20040;-71
2022/01/15 01:26:32;;;;;;;1.83;1.38;;;;;;;-1.45;76.58;96773.56;5072019;28;20445;-71
2022/01/15 01:29:13;;;;;;;1.48;1.30;;;;;;;-1.45;76.58;96773.56;5071871;28;20032;-72
2022/01/15 01:31:53;;;;;;;1.75;1.33;;;;;;;-1.38;76.04;96774.84;5053702;28;20078;-71
2022/01/15 01:34:22;;;;;;;1.27;1.27;;;;;;;-1.39;75.75;96785.16;5053908;28;20032;-71
2022/01/15 01:36:59;;;;;;;1.50;1.40;;;;;;;-1.37;75.98;96781.59;5071522;28;20037;-71
2022/01/15 01:39:36;;;;;;;2.83;1.40;;;;;;;-1.39;76.28;96773.19;5071774;28;20040;-73
2022/01/15 01:44:39;;;;;;;1.50;1.40;;;;;;;-1.37;76.61;96770.53;5055080;28;20125;-71
2022/01/15 01:47:15;;;;;;;4.68;1.75;;;;;;;-1.35;76.81;96784.91;5054198;28;20068;-69
2022/01/15 01:49:42;;;;;;;1.63;1.50;;;;;;;-1.36;77.29;96788.38;5071925;28;20060;-72
2022/01/15 01:52:09;;;;;;;1.42;1.33;;;;;;;-1.38;78.14;96794.47;5072027;28;20450;-71
2022/01/15 01:54:38;;;;;;;1.85;1.45;;;;;;;-1.41;78.89;96784.44;5054039;28;20059;-72
2022/01/15 01:57:04;;;;;;;1.88;1.77;;;;;;;-1.44;79.56;96787.97;5053939;28;20570;-72
2022/01/15 01:59:32;;;;;;;4.40;2.15;;;;;;;-1.44;80.30;96805.88;5071819;28;20052;-72
2022/01/15 02:01:59;;;;;;;1.70;1.60;;;;;;;-1.42;80.63;96808.34;5071387;28;20427;-73
2022/01/15 02:04:25;;;;;;;3.15;2.30;;;;;;;-1.44;81.33;96808.41;5071937;28;20090;-72
2022/01/15 02:06:51;;;;;;;3.00;2.00;;;;;;;-1.47;81.81;96816.25;5071102;28;20045;-70
2022/01/15 02:09:20;;;;;;;1.30;1.20;;;;;;;-1.47;81.67;96823.94;5053979;28;20453;-71
2022/01/15 02:11:46;;;;;;;1.30;1.30;;;;;;;-1.44;81.92;96821.22;5053196;28;20052;-70
2022/01/15 02:14:32;;;;;;;1.85;1.70;;;;;;;-1.43;82.02;96817.75;5071606;28;20044;-70
2022/01/15 02:16:58;;;;;;;1.40;1.30;;;;;;;-1.42;80.61;96816.84;5071206;28;20114;-73
2022/01/15 02:19:30;;;;;;;1.83;1.60;;;;;;;-1.44;80.83;96813.53;5071288;28;20139;-73
2022/01/15 02:24:45;;;;;;;1.58;1.48;;;;;;;-1.43;80.13;96817.75;5024084;28;20056;-72
2022/01/15 02:27:16;;;;;;;1.48;1.38;;;;;;;-1.39;78.31;96811.56;5071187;28;20527;-72
2022/01/15 02:29:42;;;;;;;;;;;;;;;-1.37;78.30;96809.72;5053530;28;20479;-72
2022/01/15 02:32:11;;;;;;;1.45;1.35;;;;;;;-1.34;77.75;96822.34;5071116;28;19920;-71
2022/01/15 02:34:37;;;;;;;0.90;0.90;;;;;;;-1.37;77.83;96817.41;5070614;28;20082;-71
2022/01/15 02:37:03;;;;;;;1.67;1.45;;;;;;;-1.36;77.46;96819.06;5052953;28;20033;-72
2022/01/15 02:39:29;;;;;;;1.10;1.10;;;;;;;-1.28;76.29;96822.03;5070913;28;20389;-72
2022/01/15 02:41:55;;;;;;;1.63;1.27;;;;;;;-1.33;77.18;96824.00;5070437;28;20630;-72
2022/01/15 02:44:21;;;;;;;1.27;1.20;;;;;;;-1.33;78.05;96831.66;5070735;28;20117;-71
2022/01/15 02:49:17;;;;;;;3.90;1.35;;;;;;;-1.48;79.95;96832.53;5052484;28;20550;-71
2022/01/15 02:51:43;;;;;;;3.83;1.50;;;;;;;-1.44;79.83;96833.19;5052290;28;20419;-72
2022/01/15 02:54:09;;;;;;;2.08;1.95;;;;;;;-1.48;79.72;96840.22;5035949;28;20459;-70
2022/01/15 02:56:37;;;;;;;1.70;1.60;;;;;;;-1.45;80.03;96840.03;5069932;28;20048;-69
2022/01/15 02:59:04;;;;;;;0.90;0.90;;;;;;;-1.43;80.36;96853.56;5052774;28;20059;-71
2022/01/15 03:01:30;;;;;;;1.55;1.35;;;;;;;-1.43;80.76;96860.41;5052364;28;20028;-71
2022/01/15 03:03:58;;;;;;;2.92;1.75;;;;;;;-1.47;81.76;96851.28;5070289;28;20357;-72
2022/01/15 03:06:24;;;;;;;1.20;1.20;;;;;;;-1.50;82.63;96846.28;5035986;28;20048;-72
2022/01/15 03:08:51;;;;;;;1.65;1.55;;;;;;;-1.54;83.60;96853.34;5051712;28;20460;-69
2022/01/15 03:11:17;;;;;;;1.13;1.13;;;;;;;-1.62;84.42;96863.16;5070093;28;20158;-71
2022/01/15 03:13:44;;;;;;;1.52;1.42;;;;;;;-1.71;86.04;96853.44;5051882;28;20525;-72
2022/01/15 03:16:13;;;;;;;1.98;1.80;;;;;;;-1.79;87.51;96858.13;5069695;28;20463;-71
2022/01/15 03:18:39;;;;;;;1.92;1.67;;;;;;;-1.81;87.68;96865.06;5069561;28;20051;-71
2022/01/15 03:21:05;;;;;;;1.77;1.63;;;;;;;-1.87;88.59;96867.94;5070681;28;20055;-70
2022/01/15 03:23:31;;;;;;;1.38;1.33;;;;;;;-1.85;89.21;96866.13;5056389;28;20032;-72
2022/01/15 03:25:57;;;;;;;2.00;1.80;;;;;;;-1.85;89.02;96861.84;5056189;28;20045;-71
2022/01/15 03:28:23;;;;;;;1.63;1.60;;;;;;;-1.74;88.28;96853.59;5077041;28;20055;-71
2022/01/15 03:30:50;;;;;;;1.70;1.30;;;;;;;-1.73;88.49;96865.44;5079209;28;20503;-70
2022/01/15 03:33:16;;;;;;;1.60;1.50;;;;;;;-1.67;87.79;96865.16;5074487;28;20044;-71
2022/01/15 03:35:42;;;;;;;1.88;1.77;;;;;;;-1.67;88.53;96860.03;5071411;28;20487;-70
2022/01/15 03:38:08;;;;;;;2.30;2.20;;;;;;;-1.65;88.08;96868.44;5069840;28;20071;-69
2022/01/15 03:40:35;;;;;;;3.30;1.98;;;;;;;-1.62;88.21;96858.03;5060949;28;20040;-70
2022/01/15 03:43:01;;;;;;;2.70;2.10;;;;;;;-1.61;87.41;96872.47;5089702;28;20325;-70
2022/01/15 03:45:27;;;;;;;2.92;1.95;;;;;;;-1.59;87.60;96875.75;5090334;28;20569;-71
2022/01/15 03:47:56;;;;;;;2.75;2.13;;;;;;;-1.58;87.27;96862.91;5089488;28;20039;-71
2022/01/15 03:50:23;;;;;;;2.45;1.88;;;;;;;-1.55;87.02;96882.38;5089625;28;20051;-69
2022/01/15 03:52:49;;;;;;;1.95;1.90;;;;;;;-1.56;87.35;96875.59;5064830;28;20183;-70
2022/01/15 03:55:15;;;;;;;2.08;1.80;;;;;;;-1.59;87.42;96876.59;5069287;28;20075;-71
2022/01/15 03:57:41;;;;;;;1.30;1.30;;;;;;;-1.58;87.76;96883.38;5069257;28;20039;-70
2022/01/15 04:00:10;;;;;;;1.30;1.30;;;;;;;-1.58;87.31;96879.97;5051698;28;20097;-71
2022/01/15 04:02:38;;;;;;;1.52;1.42;;;;;;;-1.55;87.63;96889.22;5035026;28;20508;-71
2022/01/15 04:05:04;;;;;;;1.52;1.42;;;;;;;-1.55;87.49;96882.38;5084771;28;20075;-72
2022/01/15 04:07:30;;;;;;;1.75;1.63;;;;;;;-1.54;87.69;96896.81;5050907;28;20117;-71
2022/01/15 04:09:57;;;;;;;2.50;1.90;;;;;;;-1.54;87.59;96886.59;5068693;28;20047;-72
2022/01/15 04:12:23;;;;;;;1.60;1.40;;;;;;;-1.55;87.93;96904.56;5084534;28;20218;-73
2022/01/15 04:14:49;;;;;;;1.30;1.30;;;;;;;-1.59;88.23;96891.09;5068780;28;20048;-70
2022/01/15 04:17:15;;;;;;;2.05;1.83;;;;;;;-1.59;88.41;96903.88;5069317;28;20064;-71
2022/01/15 04:19:42;;;;;;;1.63;1.52;;;;;;;-1.60;88.27;96909.91;5068388;28;20052;-71
2022/01/15 04:22:08;;;;;;;1.90;1.33;;;;;;;-1.63;88.27;96894.72;5068738;28;20051;-72
2022/01/15 04:24:34;;;;;;;1.65;1.15;;;;;;;-1.64;88.62;96911.00;5034202;28;20041;-73
2022/01/15 04:27:00;;;;;;;1.58;1.52;;;;;;;-1.64;88.77;96911.00;5050499;28;20029;-71
2022/01/15 04:29:26;;;;;;;1.77;1.67;;;;;;;-1.65;89.18;96917.00;5068681;28;20507;-71
2022/01/15 04:31:52;;;;;;;1.63;1.55;;;;;;;-1.64;89.30;96913.56;5062147;28;20060;-71
2022/01/15 04:34:25;;;;;;;1.77;1.67;;;;;;;-1.66;88.93;96910.22;5062836;28;20041;-71
2022/01/15 04:36:52;;;;;;;1.23;1.23;;;;;;;-1.70;89.68;96917.25;5048397;28;20119;-70
2022/01/15 04:39:18;;;;;;;1.67;1.58;;;;;;;-1.69;89.79;96930.84;5057162;28;20064;-72
2022/01/15 04:41:44;;;;;;;1.55;1.55;;;;;;;-1.68;89.91;96930.78;5042001;28;20032;-72
2022/01/15 04:44:10;;;;;;;1.92;1.83;;;;;;;-1.73;90.11;96934.47;5044239;28;20036;-71
2022/01/15 04:46:37;;;;;;;1.20;1.20;;;;;;;-1.77;90.21;96933.84;5057433;28;20036;-71
2022/01/15 04:49:04;;;;;;;1.70;1.60;;;;;;;-1.73;90.19;96939.59;5037117;28;20087;-71
2022/01/15 04:51:30;;;;;;;1.40;1.40;;;;;;;-1.76;90.59;96937.19;5031048;28;20508;-71
2022/01/15 04:53:56;;;;;;;1.90;1.60;;;;;;;-1.78;90.84;96941.56;5036301;28;20098;-71
2022/01/15 04:56:22;;;;;;;1.80;1.70;;;;;;;-1.77;90.66;96946.63;5062968;28;20044;-72
2022/01/15 04:58:48;;;;;;;1.67;1.60;;;;;;;-1.75;90.41;96943.97;5050217;28;20131;-71
2022/01/15 05:01:14;;;;;;;2.05;1.92;;;;;;;-1.64;88.45;96944.22;5052985;28;20033;-71
2022/01/15 05:03:40;;;;;;;2.42;2.20;;;;;;;-1.56;87.90;96942.06;5056450;28;20068;-71
2022/01/15 05:06:06;;;;;;;1.83;1.73;;;;;;;-1.46;85.88;96963.69;5054838;28;20036;-72
2022/01/15 05:08:32;;;;;;;2.58;1.90;;;;;;;-1.39;97.99;96977.81;5046648;28;20554;-71
2022/01/15 05:11:11;;;;;;;2.13;1.92;;;;;;;-1.29;100.00;96968.72;5057424;28;20041;-72
2022/01/15 05:13:37;;;;;;;1.88;1.77;;;;;;;-1.33;99.12;96981.75;5046236;28;20101;-72
2022/01/15 05:16:04;;;;;;;1.95;1.80;;;;;;;-1.33;91.42;96972.34;5064518;28;20047;-71
2022/01/15 05:18:30;;;;;;;3.33;1.80;;;;;;;-1.33;83.75;96997.09;5044729;28;20072;-72
2022/01/15 05:20:57;;;;;;;1.40;1.40;;;;;;;-1.35;82.64;96988.69;5045938;28;20086;-73
2022/01/15 05:23:23;;;;;;;1.80;1.70;;;;;;;-1.34;81.79;96991.16;5044662;28;20056;-72
2022/01/15 05:25:49;;;;;;;1.70;1.70;;;;;;;-1.37;82.14;96991.31;5068481;28;20032;-72
2022/01/15 05:28:15;;;;;;;1.75;1.65;;;;;;;-1.34;81.70;96996.28;5068105;28;20039;-71
2022/01/15 05:30:41;;;;;;;2.05;1.73;;;;;;;-1.33;81.82;97005.59;5068161;28;20037;-72
2022/01/15 05:33:07;;;;;;;1.55;1.50;;;;;;;-1.33;81.65;97013.28;5068953;28;20041;-72
2022/01/15 05:35:33;;;;;;;1.60;1.50;;;;;;;-1.33;81.26;97012.47;5067940;28;20043;-72
2022/01/15 05:37:59;;;;;;;5.40;2.22;;;;;;;-1.32;81.48;97037.97;5067938;28;20056;-72
2022/01/15 05:40:26;;;;;;;2.00;1.90;;;;;;;-1.34;81.69;97029.53;5047680;28;20066;-72
2022/01/15 05:42:52;;;;;;;1.70;1.60;;;;;;;-1.30;80.62;97028.47;5059733;28;20409;-72
2022/01/15 05:45:21;;;;;;;2.78;1.38;;;;;;;-1.26;80.27;97035.09;5050620;28;20120;-72
2022/01/15 05:47:47;;;;;;;1.35;1.35;;;;;;;-1.23;79.54;97040.03;5068555;28;20040;-71
2022/01/15 05:50:13;;;;;;;1.63;1.52;;;;;;;-1.22;79.71;97051.94;5057008;28;20036;-71
2022/01/15 05:52:39;;;;;;;1.58;1.58;;;;;;;-1.21;79.55;97043.31;5044222;28;20551;-71
2022/01/15 05:55:06;;;;;;;2.10;2.00;;;;;;;-1.20;78.52;97034.75;5047174;28;20157;-70
2022/01/15 05:57:32;;;;;;;1.63;1.60;;;;;;;-1.19;79.31;97061.16;5034575;28;20043;-71
2022/01/15 05:59:58;;;;;;;1.52;1.52;;;;;;;-1.24;79.29;97058.84;5069445;28;20056;-71
2022/01/15 06:02:25;;;;;;;1.85;1.75;;;;;;;-1.26;79.82;97058.09;5070180;28;20044;-73
2022/01/15 06:04:51;;;;;;;2.60;2.40;;;;;;;-1.24;80.37;97063.97;5061652;28;20032;-77
2022/01/15 06:07:17;;;;;;;1.80;1.70;;;;;;;-1.23;80.16;97065.63;5013108;28;20120;-74
2022/01/15 06:09:43;;;;;;;2.10;2.00;;;;;;;-1.27;80.85;97061.56;5049392;28;20043;-75
2022/01/15 06:12:10;;;;;;;1.77;1.67;;;;;;;-1.29;80.90;97085.59;5051242;28;20235;-76
2022/01/15 06:14:36;;;;;;;2.00;1.80;;;;;;;-1.32;81.26;97073.78;5050583;28;20032;-74
2022/01/15 06:17:08;;;;;;;2.15;1.95;;;;;;;-1.31;81.38;97088.19;5052600;28;20052;-74
2022/01/15 06:19:36;;;;;;;1.55;1.45;;;;;;;-1.23;80.91;97087.81;5071158;28;20053;-75
2022/01/15 06:22:03;;;;;;;1.60;1.52;;;;;;;-1.27;81.29;97089.69;5071683;28;20064;-73
2022/01/15 06:24:29;;;;;;;1.58;1.48;;;;;;;-1.19;80.27;97092.69;5105853;28;20649;-72
2022/01/15 06:26:56;;;;;;;1.40;1.40;;;;;;;-1.09;79.32;97113.50;5090964;28;20106;-74
2022/01/15 06:29:23;;;;;;;1.90;1.80;;;;;;;-1.09;79.28;97086.19;5056939;28;20040;-74
2022/01/15 06:31:49;;;;;;;2.03;1.88;;;;;;;-1.06;79.53;97113.34;5072957;28;20058;-73
2022/01/15 06:34:21;;;;;;;1.60;1.60;;;;;;;-1.08;79.67;97095.50;5073204;28;20135;-73
2022/01/15 06:36:47;;;;;;;1.73;1.63;;;;;;;-1.14;80.90;97106.06;5053333;28;20032;-73
2022/01/15 06:39:14;;;;;;;1.77;1.67;;;;;;;-1.15;81.39;97109.56;5070767;28;20400;-74
2022/01/15 06:41:40;;;;;;;1.55;1.52;;;;;;;-1.13;80.64;97123.09;5070913;28;20032;-75
2022/01/15 06:44:06;;;;;;;1.65;1.55;;;;;;;-1.16;81.58;97122.41;5070897;28;20055;-73
2022/01/15 06:46:32;;;;;;;2.10;2.00;;;;;;;-1.18;81.17;97135.28;5070903;28;20037;-73
2022/01/15 06:48:58;;;;;;;1.60;1.50;;;;;;;-1.16;81.88;97128.34;5035707;28;20101;-73
2022/01/15 06:51:27;;;;;;;1.90;1.80;;;;;;;-1.19;82.37;97133.63;5086443;28;20041;-72
2022/01/15 06:53:55;;;;;;;4.90;1.60;;;;;;;-1.21;83.53;97152.53;5053331;28;20128;-72
2022/01/15 06:56:21;;;;;;;2.17;2.08;;;;;;;-1.26;84.67;97152.75;5069795;28;20040;-73
2022/01/15 06:58:47;;;;;;;2.25;1.95;;;;;;;-1.29;85.53;97155.47;5035248;28;20389;-72
2022/01/15 07:01:13;;;;;;;2.80;2.60;;;;;;;-1.29;85.23;97158.03;5070479;28;20036;-72
2022/01/15 07:03:39;;;;;;;2.55;2.00;;;;;;;-1.20;84.62;97138.81;5059681;28;20032;-73
2022/01/15 07:06:05;;;;;;;2.53;2.33;;;;;;;-1.18;83.74;97160.84;5059505;28;20040;-73
2022/01/15 07:08:31;;;;;;;2.88;2.67;;;;;;;-1.14;83.57;97166.66;5048540;28;20032;-74
2022/01/15 07:10:57;;;;;;;2.78;1.92;;;;;;;-1.10;83.27;97170.72;5068668;28;20040;-74
2022/01/15 07:13:25;;;;;;;2.20;2.10;;;;;;;-1.18;83.82;97173.66;5068736;28;20044;-73
2022/01/15 07:15:51;;;;;;;2.10;1.67;;;;;;;-1.18;84.12;97181.34;5068782;28;20040;-73
2022/01/15 07:18:19;;;;;;;2.08;1.88;;;;;;;-1.27;85.09;97179.25;5069902;28;20036;-73
2022/01/15 07:20:45;;;;;;;1.92;1.83;;;;;;;-1.29;84.52;97181.06;5069912;28;20044;-73
2022/01/15 07:23:11;;;;;;;1.90;1.80;;;;;;;-1.27;83.75;97180.97;5068280;28;20036;-73
2022/01/15 07:25:37;;;;;;;2.08;1.98;;;;;;;-1.23;83.18;97190.16;5069641;28;20040;-73
2022/01/15 07:28:03;;;;;;;1.77;1.65;;;;;;;-1.18;82.83;97176.22;5040991;28;20039;-73
2022/01/15 07:30:29;;;;;;;2.35;2.15;;;;;;;-1.14;82.20;97200.75;5085035;28;20048;-73
2022/01/15 07:32:55;;;;;;;1.80;1.70;;;;;;;-1.05;82.89;97197.72;5084842;28;20051;-73
2022/01/15 07:35:21;;;;;;;2.17;2.08;;;;;;;-1.03;82.11;97194.25;5070029;28;20036;-74
2022/01/15 07:37:47;;;;;;;2.42;2.22;;;;;;;-1.01;81.43;97183.03;5069197;28;20056;-72
2022/01/15 07:40:15;;;;;;;2.95;1.83;;;;;;;-0.99;81.28;97214.50;5050769;28;20045;-74
2022/01/15 07:42:41;;;;;;;2.10;1.95;;;;;;;-1.01;81.38;97207.81;5047343;28;20041;-73
2022/01/15 07:45:09;;;;;;;6.43;1.77;;;;;;;-0.90;81.65;97234.50;5059947;28;20049;-73
2022/01/15 07:47:36;;;;;;;2.03;1.92;;;;;;;-0.83;80.76;97228.16;5031761;28;20041;-73
2022/01/15 07:50:06;;;;;;;1.95;1.85;;;;;;;-0.75;80.10;97230.31;5049476;28;20041;-73
2022/01/15 07:52:32;;;;;;;1.83;1.73;;;;;;;-0.87;79.88;97246.31;5065189;28;20037;-74
2022/01/15 07:55:00;;;;;;;1.80;1.70;;;;;;;-0.87;80.46;97236.06;5051241;28;20601;-74
2022/01/15 07:57:26;;;;;;;2.55;2.35;;;;;;;-0.87;79.45;97211.31;5063236;28;20037;-74
2022/01/15 07:59:54;;;;;;;3.05;2.28;;;;;;;-0.82;79.21;97254.59;5033385;28;20141;-74
2022/01/15 08:02:20;;;;;;;2.20;2.00;;;;;;;-0.88;80.31;97255.72;5071290;28;20112;-74
2022/01/15 08:04:48;;;;;;;2.45;2.05;;;;;;;-0.90;79.94;97246.47;5071260;28;20150;-74
2022/01/15 08:07:14;;;;;;;8.70;2.28;;;;;;;-0.96;80.45;97249.34;5089466;28;20063;-74
2022/01/15 08:09:41;;;;;;;4.68;2.38;;;;;;;-1.01;81.25;97259.00;5064033;28;20048;-73
2022/01/15 08:12:07;;;;;;;3.33;2.33;;;;;;;-1.00;80.79;97265.75;5054567;28;20047;-73
2022/01/15 08:14:34;;;;;;;2.00;1.80;;;;;;;-0.97;81.31;97265.59;5069309;28;20040;-73
2022/01/15 08:17:00;;;;;;;2.28;2.08;;;;;;;-0.94;81.45;97280.81;5051243;28;20052;-74
2022/01/15 08:19:26;;;;;;;1.90;1.80;;;;;;;-0.87;81.21;97277.03;5034762;28;20041;-74
2022/01/15 08:21:52;;;;;;;1.98;1.88;;;;;;;-0.87;82.17;97289.84;5067809;28;20051;-75
2022/01/15 08:24:18;;;;;;;1.75;1.65;;;;;;;-0.90;82.16;97266.94;5045172;28;20420;-75
2022/01/15 08:26:45;;;;;;;3.03;1.92;;;;;;;-0.92;85.20;97294.38;5031757;28;20543;-76
2022/01/15 08:29:12;;;;;;;2.20;1.90;;;;;;;-0.95;84.15;97284.28;5077660;28;20044;-76
2022/01/15 08:31:37;;;;;;;1.83;1.73;;;;;;;-1.02;85.04;97295.75;5069817;28;20508;-76
2022/01/15 08:34:03;;;;;;;2.83;2.63;;;;;;;-1.00;86.88;97304.16;5053092;28;20052;-74
2022/01/15 08:36:32;;;;;;;1.92;1.83;;;;;;;-0.95;87.50;97302.22;5069286;28;20121;-76
2022/01/15 08:38:58;;;;;;;2.42;2.20;;;;;;;-1.00;86.12;97301.59;5068844;28;20056;-76
2022/01/15 08:41:24;;;;;;;2.22;2.13;;;;;;;-1.13;85.14;97316.72;5064678;28;20044;-74
2022/01/15 08:43:50;;;;;;;2.15;2.05;;;;;;;-1.12;85.22;97318.41;5068369;28;20047;-77
2022/01/15 08:46:19;;;;;;;2.22;2.13;;;;;;;-1.05;83.27;97315.44;5068795;28;20139;-74
2022/01/15 08:48:47;;;;;;;3.35;2.40;;;;;;;-0.93;82.47;97318.31;5034023;28;20040;-76
2022/01/15 08:51:14;;;;;;;2.42;2.33;;;;;;;-0.90;79.94;97293.38;5070429;28;20537;-76
2022/01/15 08:53:41;;;;;;;2.20;2.10;;;;;;;-0.79;79.95;97331.25;5068011;28;20094;-76
2022/01/15 08:56:07;;;;;;;3.25;1.88;;;;;;;-0.82;80.08;97326.28;5068624;28;20044;-76
2022/01/15 08:58:33;;;;;;;3.45;2.10;;;;;;;-0.84;78.10;97344.28;5068516;28;20064;-76
2022/01/15 09:00:59;;;;;;;2.47;2.30;;;;;;;-0.81;77.51;97333.03;5066966;28;20087;-75
2022/01/15 09:03:25;;;;;;;1.92;1.90;;;;;;;-0.78;76.10;97343.13;5054213;28;20036;-76
2022/01/15 09:05:52;;;;;;;2.05;1.95;;;;;;;-0.74;75.51;97331.84;5068108;28;20036;-75
2022/01/15 09:08:21;;;;;;;1.95;1.85;;;;;;;-0.69;75.23;97347.81;5068758;28;20049;-77
2022/01/15 09:10:47;;;;;;;1.65;1.65;;;;;;;-0.63;73.97;97356.03;5067407;28;20044;-77
2022/01/15 09:13:13;;;;;;;2.13;2.03;;;;;;;-0.65;74.24;97349.28;5067298;28;20356;-75
2022/01/15 09:15:39;;;;;;;1.95;1.85;;;;;;;-0.61;73.84;97366.16;5068901;28;20058;-75
2022/01/15 09:18:06;;;;;;;2.13;2.00;;;;;;;-0.66;74.07;97357.91;5066705;28;20048;-73
2022/01/15 09:20:31;;;;;;;2.38;2.28;;;;;;;-0.62;73.92;97354.25;5068606;28;20507;-74
2022/01/15 09:22:59;;;;;;;1.90;1.80;;;;;;;-0.65;74.23;97380.03;5071733;28;20514;-76
2022/01/15 09:25:27;;;;;;;2.15;1.95;;;;;;;-0.62;74.01;97380.72;5048900;28;20041;-76
2022/01/15 09:30:39;;;;;;;1.75;1.65;;;;;;;-0.66;74.18;97383.50;5054567;28;20044;-73
2022/01/15 09:33:06;;;;;;;2.13;2.03;;;;;;;-0.63;73.37;97378.25;5036946;28;20052;-75
2022/01/15 09:35:32;;;;;;;3.80;1.80;;;;;;;-0.58;73.43;97355.78;5071620;28;20045;-73
2022/01/15 09:38:01;;;;;;;2.30;2.15;;;;;;;-0.57;73.46;97388.16;5071104;28;20052;-72
2022/01/15 09:40:27;;;;;;;1.95;1.70;;;;;;;-0.60;75.10;97389.16;5071565;28;20044;-73
2022/01/15 09:42:53;;;;;;;2.35;2.15;;;;;;;-0.63;74.98;97414.09;5053452;28;20348;-73
2022/01/15 09:45:20;;;;;;;2.63;2.20;;;;;;;-0.69;76.11;97404.16;5070801;28;20033;-73
2022/01/15 09:47:47;;;;;;;2.05;1.95;;;;;;;-0.77;77.23;97416.50;5084248;28;20397;-73
2022/01/15 09:50:15;;;;;;;2.22;2.13;;;;;;;-0.79;77.23;97379.91;5053420;28;20127;-73
2022/01/15 09:52:43;;;;;;;1.85;1.75;;;;;;;-0.77;78.27;97422.44;5052598;28;20169;-72
2022/01/15 09:55:11;;;;;;;2.22;2.13;;;;;;;-0.81;79.00;97420.09;5070893;28;20045;-73
2022/01/15 09:57:37;;;;;;;2.30;2.20;;;;;;;-0.85;79.44;97398.13;5070039;28;20070;-74
2022/01/15 10:00:07;;;;;;;2.40;2.30;;;;;;;-0.88;79.73;97411.09;5070625;28;20526;-73
2022/01/15 10:02:38;;;;;;;2.17;2.08;;;;;;;-0.91;80.04;97414.59;5074970;28;20446;-76
2022/01/15 10:05:04;;;;;;;2.28;2.17;;;;;;;-0.89;80.04;97437.59;5067806;28;20036;-75
2022/01/15 10:07:30;;;;;;;1.85;1.75;;;;;;;-0.98;81.35;97431.16;5072613;28;20048;-74
2022/01/15 10:09:56;;;;;;;2.20;2.10;;;;;;;-0.95;81.59;97440.44;5073605;28;20080;-75
2022/01/15 10:12:26;;;;;;;2.45;2.25;;;;;;;-1.02;81.52;97444.19;5074242;28;20044;-73
2022/01/15 10:14:54;;;;;;;4.20;2.75;;;;;;;-0.95;81.22;97448.13;5073225;28;20092;-77
2022/01/15 10:17:24;;;;;;;2.38;2.10;;;;;;;-0.85;80.41;97459.59;5076898;28;20123;-75
2022/01/15 10:19:50;;;;;;;2.20;2.10;;;;;;;-0.86;80.38;97445.13;5078830;28;20048;-75
2022/01/15 10:22:16;;;;;;;2.10;1.90;;;;;;;-0.79;80.52;97464.41;5079890;28;20041;-75
2022/01/15 10:24:50;;;;;;;2.38;2.28;;;;;;;-0.79;79.95;97462.69;5071600;28;20542;-74
2022/01/15 10:27:24;;;;;;;2.20;1.88;;;;;;;-0.81;80.57;97466.19;5050944;28;20130;-74
2022/01/15 10:30:09;;;;;;;2.58;2.38;;;;;;;-0.86;81.19;97443.38;5071248;28;20090;-76
2022/01/15 10:32:37;;;;;;;3.15;2.90;;;;;;;-0.91;81.37;97470.94;5065789;28;20077;-75
2022/01/15 10:35:14;;;;;;;2.65;2.45;;;;;;;-0.94;80.13;97425.00;5070246;28;20123;-74
2022/01/15 10:37:47;;;;;;;35.47;3.55;;;;;;;-0.92;80.21;97459.03;5069340;28;20102;-73
2022/01/15 10:40:13;;;;;;;2.40;2.30;;;;;;;-0.90;82.02;97492.25;5070345;28;20049;-73
2022/01/15 10:42:40;;;;;;;3.10;2.53;;;;;;;-0.89;81.96;97479.38;5069302;28;20044;-74
2022/01/15 10:45:13;;;;;;;1.90;1.80;;;;;;;-0.86;79.40;97498.88;5070488;28;20497;-73
2022/01/15 10:47:44;;;;;;;2.58;2.28;;;;;;;-0.84;79.43;97491.94;5070764;28;20040;-74
2022/01/15 10:50:23;;;;;;;2.20;2.00;;;;;;;-0.91;79.50;97490.56;5066918;28;20048;-73
2022/01/15 10:52:52;;;;;;;2.13;2.03;;;;;;;-0.92;79.26;97505.13;5069912;28;20037;-73
2022/01/15 10:55:32;;;;;;;7.47;2.42;;;;;;;-0.96;78.83;97506.16;5048851;28;20033;-74
2022/01/15 10:58:06;;;;;;;2.58;2.38;;;;;;;-1.02;79.79;97508.19;5028411;28;20573;-74
2022/01/15 11:00:40;;;;;;;2.33;2.05;;;;;;;-1.20;81.72;97523.47;5085313;28;20407;-73
2022/01/15 11:03:10;;;;;;;4.72;2.05;;;;;;;-1.19;85.66;97516.63;5090178;28;20124;-73
2022/01/15 11:05:41;;;;;;;2.00;1.90;;;;;;;-1.26;83.07;97499.88;5065258;28;20424;-73
2022/01/15 11:08:21;;;;;;;1.70;1.60;;;;;;;-1.21;82.73;97544.03;5069485;28;20318;-73
2022/01/15 11:10:49;;;;;;;2.63;2.42;;;;;;;-1.13;81.58;97554.72;5070108;28;20048;-74
2022/01/15 11:13:20;;;;;;;2.15;2.05;;;;;;;-1.09;80.88;97553.69;5069187;28;20128;-75
2022/01/15 11:15:48;;;;;;;2.38;2.28;;;;;;;-1.01;81.11;97558.47;5060575;28;20561;-75
2022/01/15 11:18:25;;;;;;;4.57;2.38;;;;;;;-0.98;80.27;97571.13;5085011;28;20040;-75
2022/01/15 11:20:54;;;;;;;2.03;1.92;;;;;;;-1.00;79.44;97524.28;5052043;28;20044;-74
2022/01/15 11:23:22;;;;;;;2.20;2.05;;;;;;;-0.99;79.74;97572.03;5052112;28;20041;-73
2022/01/15 11:25:49;;;;;;;2.35;2.25;;;;;;;-0.99;78.80;97577.16;5068945;28;20071;-74
2022/01/15 11:28:17;;;;;;;2.58;2.38;;;;;;;-1.00;79.00;97568.63;5067367;28;20547;-74
2022/01/15 11:30:43;;;;;;;2.03;1.92;;;;;;;-1.02;78.14;97579.84;5057995;28;20101;-73
2022/01/15 11:33:09;;;;;;;2.40;2.20;;;;;;;-1.02;78.38;97584.97;5068092;28;20040;-73
2022/01/15 11:35:45;;;;;;;3.22;1.88;;;;;;;-1.09;79.66;97598.03;5068352;28;20044;-73
2022/01/15 11:38:34;;;;;;;1.88;1.77;;;;;;;-1.16;80.89;97604.34;5068541;28;20415;-74
2022/01/15 11:41:00;;;;;;;2.20;2.10;;;;;;;-1.14;81.18;97611.94;5068076;28;20550;-74
2022/01/15 11:43:26;;;;;;;2.95;1.73;;;;;;;-1.17;81.34;97602.66;5069327;28;20071;-74
2022/01/15 12:41:18;;;;;;;2.30;2.20;;;;;;;-1.31;83.67;97753.38;5059571;28;20181;-72
2022/01/15 12:43:45;;;;;;;2.58;2.45;;;;;;;-1.43;85.92;97746.22;5044780;28;20099;-73
2022/01/15 12:46:12;;;;;;;2.13;2.03;;;;;;;-1.48;85.89;97740.47;5025715;28;20056;-74
2022/01/15 12:48:43;;;;;;;3.17;2.97;;;;;;;-1.41;85.93;97767.47;5044647;28;20527;-73
2022/01/15 12:51:14;;;;;;;2.10;2.00;;;;;;;-1.40;85.35;97750.38;5062162;28;20053;-73
2022/01/15 12:53:43;;;;;;;2.80;2.60;;;;;;;-1.37;84.41;97781.78;5047131;28;20080;-74
2022/01/15 12:56:11;;;;;;;2.60;2.20;;;;;;;-1.35;84.36;97782.56;5028744;28;20060;-74